Time;durP1;ratioP1;P1;durP2;ratioP2;P2;SDS_P1;SDS_P2;PMS_P1;PMS_P2;Temp;Humidity;BMP_temperature;BMP_pressure;BME280_temperature;BME280_humidity;BME280_pressure;Samples;Min_cycle;Max_cycle;Signal;HPM_P1;HPM_P2
2022/05/24 00:01:45;;;;;;;2.83;1.95;;;22.30;67.40;;;;;;5011492;28;20651;-70
2022/05/24 00:04:10;;;;;;;2.78;2.05;;;22.30;67.40;;;;;;5011016;28;20208;-69
2022/05/24 00:06:36;;;;;;;2.78;2.03;;;22.30;67.40;;;;;;5011052;28;20198;-70
2022/05/24 00:09:02;;;;;;;3.70;2.20;;;22.30;67.40;;;;;;5028779;28;20192;-70
2022/05/24 00:11:28;;;;;;;1.80;1.70;;;22.30;67.40;;;;;;4995224;28;20172;-70
2022/05/24 00:13:53;;;;;;;2.22;1.80;;;22.30;67.40;;;;;;5012571;28;20268;-70
2022/05/24 00:16:21;;;;;;;2.35;1.70;;;22.30;67.50;;;;;;5011477;28;20196;-70
2022/05/24 00:18:47;;;;;;;1.88;1.50;;;22.30;67.40;;;;;;5011287;28;20223;-70
2022/05/24 00:21:16;;;;;;;2.22;1.75;;;22.30;67.40;;;;;;4995359;28;20268;-70
2022/05/24 00:23:42;;;;;;;2.60;1.80;;;22.30;67.40;;;;;;5012769;28;20266;-70
2022/05/24 00:26:19;;;;;;;2.65;1.77;;;22.30;67.40;;;;;;5011630;28;20266;-70
2022/05/24 00:28:45;;;;;;;3.63;2.13;;;22.30;67.40;;;;;;5012815;28;20262;-70
2022/05/24 00:31:11;;;;;;;2.53;1.45;;;22.30;67.40;;;;;;5012447;28;20184;-70
2022/05/24 00:33:37;;;;;;;2.15;1.95;;;22.30;67.40;;;;;;5011355;28;20279;-70
2022/05/24 00:36:03;;;;;;;3.78;1.75;;;22.30;67.40;;;;;;4994833;28;20220;-70
2022/05/24 00:38:36;;;;;;;3.15;1.85;;;22.30;67.40;;;;;;5012399;28;20184;-70
2022/05/24 00:41:31;;;;;;;2.45;1.83;;;22.30;67.40;;;;;;5012296;28;20160;-70
2022/05/24 00:44:14;;;;;;;4.53;2.10;;;22.30;67.50;;;;;;5027995;28;20208;-70
2022/05/24 00:47:10;;;;;;;2.17;1.80;;;22.30;67.50;;;;;;5011301;28;20177;-70
2022/05/24 00:49:53;;;;;;;1.95;1.70;;;22.30;67.40;;;;;;5011180;28;20187;-70
2022/05/24 00:52:28;;;;;;;2.20;1.60;;;22.30;67.40;;;;;;4994808;28;20180;-70
2022/05/24 00:54:55;;;;;;;2.50;1.70;;;22.30;67.40;;;;;;4994593;28;20262;-70
2022/05/24 00:57:44;;;;;;;2.08;1.48;;;22.30;67.40;;;;;;5011258;28;20310;-70
2022/05/24 01:00:21;;;;;;;2.78;2.08;;;22.30;67.40;;;;;;5027421;28;20168;-70
2022/05/24 01:02:48;;;;;;;2.50;1.83;;;22.30;67.50;;;;;;5011041;28;20207;-70
2022/05/24 01:05:23;;;;;;;2.03;1.60;;;22.30;67.50;;;;;;5012372;28;20293;-70
2022/05/24 01:07:49;;;;;;;2.05;1.63;;;22.30;67.50;;;;;;4994851;28;20279;-70
2022/05/24 01:10:47;;;;;;;2.33;2.10;;;22.30;67.40;;;;;;5011100;28;20198;-70
2022/05/24 01:13:27;;;;;;;2.22;1.55;;;22.30;67.50;;;;;;4992358;28;20208;-70
2022/05/24 01:15:53;;;;;;;1.80;1.50;;;22.30;67.40;;;;;;4992741;28;20231;-70
2022/05/24 01:18:23;;;;;;;3.20;1.60;;;22.30;67.40;;;;;;5011479;28;20267;-70
2022/05/24 01:21:08;;;;;;;2.25;1.60;;;22.30;67.40;;;;;;4994679;28;20200;-70
2022/05/24 01:24:08;;;;;;;2.28;1.83;;;22.30;67.50;;;;;;4994820;28;20169;-70
2022/05/24 01:26:39;;;;;;;2.67;1.70;;;22.30;67.50;;;;;;5011333;28;20184;-70
2022/05/24 01:29:08;;;;;;;2.13;1.58;;;22.30;67.40;;;;;;4994662;28;20271;-70
2022/05/24 01:37:07;;;;;;;2.20;1.85;;;22.30;67.40;;;;;;4994283;28;20303;-70
2022/05/24 01:39:35;;;;;;;2.72;1.83;;;22.30;67.40;;;;;;4978311;28;20177;-70
2022/05/24 01:42:02;;;;;;;2.33;1.83;;;22.30;68.30;;;;;;5016031;28;20180;-70
2022/05/24 01:45:01;;;;;;;1.73;1.58;;;22.30;67.50;;;;;;5015083;28;20310;-70
2022/05/24 01:47:29;;;;;;;1.75;1.60;;;22.30;67.60;;;;;;4997743;28;20192;-71
2022/05/24 01:50:01;;;;;;;1.60;1.50;;;22.30;67.60;;;;;;5013780;28;20203;-70
2022/05/24 01:52:49;;;;;;;1.52;1.42;;;22.30;67.40;;;;;;5014921;28;20272;-70
2022/05/24 01:55:29;;;;;;;1.60;1.50;;;22.30;67.50;;;;;;5013786;28;20246;-70
2022/05/24 01:58:04;;;;;;;1.95;1.50;;;22.30;67.50;;;;;;5015009;28;20255;-71
2022/05/24 02:00:30;;;;;;;2.55;1.83;;;22.30;67.50;;;;;;5013655;28;20176;-71
2022/05/24 02:02:56;;;;;;;2.60;1.77;;;22.30;67.60;;;;;;5013508;28;20239;-70
2022/05/24 02:05:38;;;;;;;2.35;1.77;;;22.30;67.60;;;;;;5013609;28;20290;-70
2022/05/24 02:08:07;;;;;;;1.58;1.48;;;22.30;67.70;;;;;;5030006;28;20184;-71
2022/05/24 02:10:49;;;;;;;1.67;1.48;;;22.30;67.60;;;;;;5013827;28;20202;-71
2022/05/24 02:13:41;;;;;;;1.65;1.55;;;22.30;67.60;;;;;;4997200;28;20195;-70
2022/05/24 02:16:13;;;;;;;1.40;1.30;;;22.30;67.60;;;;;;4997187;28;20670;-70
2022/05/24 02:18:41;;;;;;;1.50;1.23;;;22.30;67.60;;;;;;5013561;28;20184;-70
2022/05/24 02:21:07;;;;;;;2.15;1.38;;;22.30;67.40;;;;;;4996910;28;20264;-70
2022/05/24 02:23:44;;;;;;;1.90;1.70;;;22.30;67.50;;;;;;5014425;28;20630;-70
2022/05/24 02:26:13;;;;;;;2.20;1.48;;;22.30;67.50;;;;;;5012909;28;20625;-70
2022/05/24 02:28:41;;;;;;;2.38;1.77;;;22.30;67.60;;;;;;5013077;28;20186;-70
2022/05/24 02:31:17;;;;;;;1.70;1.30;;;22.30;67.70;;;;;;5014157;28;20208;-69
2022/05/24 02:33:44;;;;;;;2.97;1.70;;;22.30;67.70;;;;;;5014184;28;20203;-70
2022/05/24 02:36:10;;;;;;;2.92;1.85;;;22.30;67.60;;;;;;5065090;22;20284;-70
2022/05/24 02:38:36;;;;;;;1.65;1.40;;;22.20;67.60;;;;;;5054588;28;20183;-70
2022/05/24 02:43:46;;;;;;;2.28;1.60;;;22.20;67.60;;;;;;5070996;28;20162;-70
2022/05/24 02:46:16;;;;;;;2.17;1.63;;;22.30;67.50;;;;;;5053823;28;20230;-70
2022/05/24 02:48:43;;;;;;;1.95;1.35;;;22.30;67.50;;;;;;5037331;28;20265;-70
2022/05/24 02:51:12;;;;;;;2.03;1.45;;;22.30;67.50;;;;;;5037705;28;20178;-69
2022/05/24 02:53:42;;;;;;;1.60;1.50;;;22.30;67.60;;;;;;5048785;28;20184;-70
2022/05/24 02:56:09;;;;;;;2.05;1.40;;;22.30;67.40;;;;;;5047112;28;20622;-70
2022/05/24 02:58:36;;;;;;;1.92;1.73;;;22.30;67.50;;;;;;5054270;28;20192;-70
2022/05/24 03:01:04;;;;;;;1.42;1.30;;;22.20;67.40;;;;;;5054866;28;20182;-69
2022/05/24 03:03:30;;;;;;;1.38;1.27;;;22.20;67.40;;;;;;5053711;28;20178;-70
2022/05/24 03:05:56;;;;;;;1.83;1.50;;;22.30;67.50;;;;;;5053147;28;20202;-70
2022/05/24 03:11:07;;;;;;;1.67;1.48;;;22.20;67.50;;;;;;5052516;28;20173;-68
2022/05/24 03:16:19;;;;;;;1.63;1.50;;;22.20;67.50;;;;;;5053231;28;20696;-70
2022/05/24 03:18:45;;;;;;;1.55;1.45;;;22.30;67.60;;;;;;5054125;28;20182;-70
2022/05/24 03:21:11;;;;;;;2.72;1.40;;;22.30;67.50;;;;;;5053530;28;20181;-69
2022/05/24 03:23:37;;;;;;;3.17;1.42;;;22.20;67.40;;;;;;5053299;28;20597;-70
2022/05/24 03:26:04;;;;;;;1.35;1.25;;;22.30;67.50;;;;;;5036432;28;20233;-70
2022/05/24 03:28:30;;;;;;;1.90;1.30;;;22.20;67.40;;;;;;5053269;28;20174;-69
2022/05/24 03:30:56;;;;;;;2.42;1.50;;;22.20;67.30;;;;;;5053263;28;20191;-70
2022/05/24 03:33:22;;;;;;;2.17;1.30;;;22.30;67.40;;;;;;5036930;28;20186;-70
2022/05/24 03:35:48;;;;;;;1.35;1.25;;;22.20;67.40;;;;;;5070179;28;20225;-70
2022/05/24 03:38:14;;;;;;;1.15;1.05;;;22.30;67.50;;;;;;5053018;28;20182;-70
2022/05/24 03:40:39;;;;;;;1.52;1.40;;;22.20;67.40;;;;;;5054114;28;20214;-70
2022/05/24 03:43:15;;;;;;;1.83;1.60;;;22.20;67.50;;;;;;5053790;28;20210;-70
2022/05/24 03:45:42;;;;;;;1.58;1.45;;;22.20;67.40;;;;;;5053976;28;20202;-70
2022/05/24 03:48:09;;;;;;;1.30;1.20;;;22.20;67.50;;;;;;5054877;28;20198;-71
2022/05/24 03:50:35;;;;;;;1.98;1.63;;;22.20;67.50;;;;;;5037166;28;20236;-71
2022/05/24 03:53:01;;;;;;;1.60;1.50;;;22.20;67.50;;;;;;5053754;28;20178;-70
2022/05/24 03:55:27;;;;;;;1.55;1.42;;;22.20;67.40;;;;;;5036846;28;20618;-70
2022/05/24 03:58:02;;;;;;;1.73;1.58;;;22.20;67.50;;;;;;5053495;28;20202;-71
2022/05/24 04:00:52;;;;;;;1.50;1.40;;;22.20;67.40;;;;;;5118468;27;1216115;-69
2022/05/24 04:03:18;;;;;;;2.08;1.33;;;22.20;67.30;;;;;;5131732;28;20198;-69
2022/05/24 04:05:47;;;;;;;1.08;1.08;;;22.20;67.40;;;;;;5122029;28;20582;-69
2022/05/24 04:08:15;;;;;;;1.60;1.23;;;22.20;67.40;;;;;;5110708;28;20222;-69
2022/05/24 04:10:41;;;;;;;1.25;1.15;;;22.20;67.40;;;;;;5109966;28;20206;-70
2022/05/24 04:13:07;;;;;;;1.55;1.20;;;22.20;67.30;;;;;;5091950;28;20180;-69
2022/05/24 04:15:33;;;;;;;1.33;1.23;;;22.30;67.50;;;;;;5108617;28;20196;-69
2022/05/24 04:17:59;;;;;;;1.98;1.30;;;22.20;67.40;;;;;;5109173;28;20176;-70
2022/05/24 04:20:27;;;;;;;1.40;1.20;;;22.20;67.30;;;;;;5110146;28;20196;-70
2022/05/24 04:22:55;;;;;;;1.40;1.30;;;22.20;67.40;;;;;;5110054;28;20172;-69
2022/05/24 04:25:21;;;;;;;1.30;1.20;;;22.20;67.40;;;;;;5108792;28;20278;-69
2022/05/24 04:27:47;;;;;;;1.25;1.15;;;22.20;67.40;;;;;;5109770;28;20318;-69
2022/05/24 04:30:14;;;;;;;1.92;1.45;;;22.20;67.50;;;;;;5109066;28;20169;-68
2022/05/24 04:32:40;;;;;;;1.40;1.30;;;22.20;67.50;;;;;;5108490;28;20184;-69
2022/05/24 04:35:07;;;;;;;2.53;1.40;;;22.20;67.50;;;;;;5109782;28;20200;-69
2022/05/24 04:37:33;;;;;;;1.60;1.50;;;22.20;67.40;;;;;;5109936;28;20187;-69
2022/05/24 04:39:59;;;;;;;1.15;1.00;;;22.20;67.40;;;;;;5108417;28;20208;-69
2022/05/24 04:42:25;;;;;;;1.50;1.40;;;22.20;67.40;;;;;;5108485;28;20181;-69
2022/05/24 04:45:01;;;;;;;2.42;1.25;;;22.20;67.40;;;;;;5109461;28;20164;-69
2022/05/24 04:47:30;;;;;;;1.40;1.30;;;22.20;67.50;;;;;;5108581;28;20184;-69
2022/05/24 04:50:00;;;;;;;1.73;1.42;;;22.20;67.40;;;;;;5108617;28;20233;-69
2022/05/24 04:52:34;;;;;;;1.10;1.10;;;22.20;67.30;;;;;;5109280;28;20208;-70
2022/05/24 04:55:03;;;;;;;1.30;1.15;;;22.20;67.30;;;;;;5109473;28;20165;-69
2022/05/24 04:57:31;;;;;;;1.73;1.20;;;22.20;67.30;;;;;;5108240;28;20165;-69
2022/05/24 04:59:57;;;;;;;1.23;1.13;;;22.20;67.30;;;;;;5100132;28;20231;-70
2022/05/24 05:02:23;;;;;;;1.20;1.10;;;22.20;67.30;;;;;;5087760;28;20174;-69
2022/05/24 05:04:49;;;;;;;1.92;1.40;;;22.20;67.40;;;;;;5087259;28;20612;-68
2022/05/24 05:07:19;;;;;;;2.22;1.35;;;22.30;68.10;;;;;;5090512;28;20176;-69
2022/05/24 05:09:47;;;;;;;2.58;1.60;;;22.30;67.90;;;;;;5092176;28;20177;-70
2022/05/24 05:12:13;;;;;;;1.92;1.60;;;22.30;67.80;;;;;;5086154;28;20203;-70
2022/05/24 05:14:40;;;;;;;1.50;1.40;;;22.30;68.10;;;;;;5074647;28;20189;-71
2022/05/24 05:17:11;;;;;;;1.55;1.45;;;22.30;68.00;;;;;;5075924;28;20158;-71
2022/05/24 05:19:37;;;;;;;2.00;1.40;;;22.30;68.00;;;;;;5075625;28;20201;-71
2022/05/24 05:22:04;;;;;;;1.75;1.65;;;22.20;67.80;;;;;;5057412;28;20177;-70
2022/05/24 05:24:30;;;;;;;1.80;1.40;;;22.20;67.80;;;;;;5074648;28;20181;-71
2022/05/24 05:26:56;;;;;;;1.55;1.45;;;22.20;67.80;;;;;;5057697;28;20213;-70
2022/05/24 05:31:16;;;;;;;2.47;1.40;;;22.20;67.90;;;;;;5057787;28;20190;-71
2022/05/24 05:32:08;;;;;;;1.38;1.27;;;22.20;67.80;;;;;;5074413;28;20205;-70
2022/05/24 05:34:34;;;;;;;1.52;1.42;;;22.20;67.80;;;;;;5111901;28;20172;-70
2022/05/24 05:37:04;;;;;;;2.40;1.40;;;22.30;67.90;;;;;;5115282;28;20569;-70
2022/05/24 05:39:30;;;;;;;1.52;1.30;;;22.20;67.80;;;;;;5097803;28;20293;-70
2022/05/24 05:41:56;;;;;;;1.42;1.33;;;22.20;67.80;;;;;;5114888;28;20207;-70
2022/05/24 05:44:22;;;;;;;1.40;1.30;;;22.20;67.80;;;;;;5098196;28;20207;-71
2022/05/24 05:46:49;;;;;;;1.42;1.10;;;22.20;67.80;;;;;;5116023;28;20275;-70
2022/05/24 05:49:15;;;;;;;1.33;1.25;;;22.20;67.80;;;;;;5116542;28;20184;-70
2022/05/24 05:51:41;;;;;;;1.42;1.33;;;22.20;67.80;;;;;;5099194;28;20226;-70
2022/05/24 05:54:07;;;;;;;1.30;1.20;;;22.30;67.90;;;;;;5075085;28;20173;-71
2022/05/24 05:56:32;;;;;;;1.65;1.38;;;22.30;67.90;;;;;;5094878;28;20226;-70
2022/05/24 05:58:58;;;;;;;1.65;1.52;;;22.30;67.80;;;;;;5096076;28;20203;-70
2022/05/24 06:01:29;;;;;;;1.45;1.35;;;22.30;67.80;;;;;;5090391;28;20177;-70
2022/05/24 06:04:00;;;;;;;1.42;1.30;;;22.20;67.80;;;;;;5085758;28;20173;-71
2022/05/24 06:06:32;;;;;;;1.90;1.50;;;22.30;67.90;;;;;;5075814;28;20255;-70
2022/05/24 06:08:58;;;;;;;1.30;1.20;;;22.30;67.90;;;;;;5087289;28;20173;-70
2022/05/24 06:11:24;;;;;;;1.40;1.30;;;22.30;67.80;;;;;;5081744;28;20244;-69
2022/05/24 06:13:51;;;;;;;1.33;1.20;;;22.30;67.80;;;;;;5073345;28;20227;-70
2022/05/24 06:16:18;;;;;;;1.50;1.40;;;22.30;67.80;;;;;;5056351;28;20212;-70
2022/05/24 06:18:45;;;;;;;1.40;1.30;;;22.30;67.90;;;;;;5087179;28;20176;-71
2022/05/24 06:21:10;;;;;;;1.52;1.35;;;22.30;67.90;;;;;;5093147;28;20191;-71
2022/05/24 06:23:36;;;;;;;1.40;1.30;;;22.30;67.90;;;;;;5075147;28;20184;-71
2022/05/24 06:26:03;;;;;;;1.60;1.20;;;22.20;67.70;;;;;;5087895;28;20194;-71
2022/05/24 06:28:29;;;;;;;1.52;1.13;;;22.30;67.90;;;;;;5079713;28;20174;-70
2022/05/24 06:30:55;;;;;;;1.48;1.25;;;22.30;67.80;;;;;;5088904;28;20318;-71
2022/05/24 06:33:21;;;;;;;1.38;1.27;;;22.30;67.80;;;;;;5073704;28;20186;-71
2022/05/24 06:35:47;;;;;;;1.35;1.25;;;22.30;67.90;;;;;;5070776;28;20201;-71
2022/05/24 06:38:13;;;;;;;1.98;1.20;;;22.20;67.70;;;;;;5072553;28;20199;-71
2022/05/24 06:40:39;;;;;;;2.03;1.27;;;22.30;67.90;;;;;;5089657;28;20330;-71
2022/05/24 06:43:05;;;;;;;1.30;1.15;;;22.30;67.90;;;;;;5093771;28;20251;-71
2022/05/24 06:45:33;;;;;;;1.00;1.00;;;22.30;67.90;;;;;;5094276;28;20197;-71
2022/05/24 06:47:59;;;;;;;1.23;1.10;;;22.30;67.90;;;;;;5076429;28;20177;-71
2022/05/24 06:50:25;;;;;;;1.42;1.20;;;22.30;67.90;;;;;;5093137;28;20297;-70
2022/05/24 06:52:56;;;;;;;1.25;1.13;;;22.30;67.90;;;;;;5093257;28;20181;-71
2022/05/24 06:55:23;;;;;;;2.85;1.25;;;22.30;67.90;;;;;;5094106;28;20200;-71
2022/05/24 06:57:50;;;;;;;4.75;1.25;;;22.30;67.90;;;;;;5094703;28;20206;-71
2022/05/24 07:03:07;;;;;;;1.20;1.00;;;22.30;67.80;;;;;;5073407;28;20186;-71
2022/05/24 07:05:33;;;;;;;1.48;1.38;;;22.30;67.70;;;;;;5072139;28;20209;-71
2022/05/24 07:08:01;;;;;;;1.35;1.13;;;22.30;67.60;;;;;;5088950;28;20192;-71
2022/05/24 07:10:29;;;;;;;1.00;0.90;;;22.40;67.70;;;;;;5060805;28;20193;-71
2022/05/24 07:12:59;;;;;;;1.48;1.20;;;22.40;67.80;;;;;;5092690;28;20263;-71
2022/05/24 07:15:26;;;;;;;1.23;0.88;;;22.30;67.70;;;;;;5092647;28;20281;-70
2022/05/24 07:17:52;;;;;;;2.35;1.15;;;22.40;67.90;;;;;;5107680;28;20200;-70
2022/05/24 07:20:17;;;;;;;1.52;1.27;;;22.40;67.80;;;;;;5108230;28;20200;-71
2022/05/24 07:22:43;;;;;;;1.35;1.15;;;22.40;67.70;;;;;;5072238;28;20189;-70
2022/05/24 07:25:09;;;;;;;1.30;1.10;;;22.40;67.80;;;;;;5072824;28;20795;-71
2022/05/24 07:27:34;;;;;;;1.45;1.10;;;22.40;67.80;;;;;;5089646;28;20183;-70
2022/05/24 07:30:00;;;;;;;1.45;1.15;;;22.40;67.70;;;;;;5091872;28;20242;-71
2022/05/24 07:32:26;;;;;;;1.15;1.05;;;22.40;67.80;;;;;;5090615;28;20190;-70
2022/05/24 07:34:52;;;;;;;1.45;1.20;;;22.40;67.80;;;;;;5112627;28;20274;-70
2022/05/24 07:37:18;;;;;;;1.40;1.30;;;22.40;67.80;;;;;;5112528;28;20172;-71
2022/05/24 07:39:44;;;;;;;1.42;1.33;;;22.40;67.70;;;;;;5097507;28;20215;-70
2022/05/24 07:47:22;;;;;;;1.73;0.98;;;22.40;67.80;;;;;;5075127;28;20197;-71
2022/05/24 07:49:48;;;;;;;1.25;1.05;;;22.30;67.80;;;;;;5091945;28;20267;-70
2022/05/24 07:52:14;;;;;;;2.03;1.10;;;22.40;67.90;;;;;;5092012;28;20256;-70
2022/05/24 07:54:40;;;;;;;1.00;1.00;;;22.40;67.80;;;;;;5091664;28;20230;-70
2022/05/24 07:57:10;;;;;;;1.00;1.00;;;22.40;67.90;;;;;;5091629;28;20216;-70
2022/05/24 07:59:38;;;;;;;1.10;0.95;;;22.30;67.80;;;;;;5093150;28;20215;-71
2022/05/24 08:02:06;;;;;;;1.77;1.00;;;22.40;67.90;;;;;;5097850;28;20169;-71
2022/05/24 08:04:32;;;;;;;2.00;1.10;;;22.30;68.50;;;;;;5097110;28;20181;-70
2022/05/24 08:06:58;;;;;;;1.20;1.00;;;22.40;67.90;;;;;;5093122;28;20199;-70
2022/05/24 08:09:23;;;;;;;1.25;1.00;;;22.40;67.50;;;;;;5091426;28;20188;-70
2022/05/24 08:11:49;;;;;;;0.82;0.82;;;22.40;67.60;;;;;;5091767;28;20244;-70
2022/05/24 08:14:15;;;;;;;1.63;1.00;;;22.40;67.70;;;;;;5091862;28;20185;-70
2022/05/24 08:16:41;;;;;;;0.90;0.90;;;22.40;67.60;;;;;;5091406;28;20208;-70
2022/05/24 08:19:08;;;;;;;1.25;1.00;;;22.40;67.50;;;;;;5092787;28;20209;-70
2022/05/24 08:21:34;;;;;;;2.15;0.90;;;22.40;67.50;;;;;;5091651;28;20272;-70
2022/05/24 08:24:00;;;;;;;1.80;0.98;;;22.40;67.50;;;;;;5074940;28;20173;-71
2022/05/24 08:26:26;;;;;;;1.00;0.90;;;22.40;67.40;;;;;;5075547;28;20204;-70
2022/05/24 08:28:52;;;;;;;1.15;0.90;;;22.40;67.30;;;;;;5073946;28;20181;-70
2022/05/24 08:31:19;;;;;;;0.95;0.57;;;22.40;67.30;;;;;;5071841;28;20204;-70
2022/05/24 08:33:46;;;;;;;0.80;0.80;;;22.40;68.20;;;;;;5071851;28;20178;-71
2022/05/24 08:36:13;;;;;;;1.23;1.00;;;22.40;67.50;;;;;;5073493;28;20201;-70
2022/05/24 08:38:41;;;;;;;1.03;1.00;;;22.40;67.10;;;;;;5072018;28;20188;-70
2022/05/24 08:41:18;;;;;;;1.17;0.82;;;22.40;66.90;;;;;;5084500;28;20181;-70
2022/05/24 08:50:20;;;;;;;0.73;0.70;;;22.50;67.20;;;;;;5096308;28;20279;-70
2022/05/24 08:53:26;;;;;;;2.72;0.80;;;22.50;66.90;;;;;;5095782;28;20276;-70
2022/05/24 08:55:52;;;;;;;0.85;0.80;;;22.40;66.80;;;;;;5070995;28;20216;-71
2022/05/24 08:58:36;;;;;;;0.70;0.70;;;22.50;66.90;;;;;;5078705;28;20187;-70
2022/05/24 09:01:29;;;;;;;1.08;0.80;;;22.50;66.70;;;;;;5079588;28;20277;-70
2022/05/24 09:03:55;;;;;;;0.80;0.80;;;22.50;66.70;;;;;;5095619;28;20180;-70
2022/05/24 09:06:46;;;;;;;2.35;0.80;;;22.50;67.00;;;;;;5091904;28;20211;-70
2022/05/24 09:09:59;;;;;;;0.70;0.70;;;22.40;66.90;;;;;;5096370;28;20192;-70
2022/05/24 09:13:01;;;;;;;0.80;0.70;;;22.40;66.90;;;;;;5095040;28;20200;-70
2022/05/24 09:15:50;;;;;;;0.70;0.70;;;22.50;66.60;;;;;;5095707;28;20212;-71
2022/05/24 09:19:16;;;;;;;0.70;0.70;;;22.40;66.70;;;;;;5083761;28;20182;-70
2022/05/24 09:21:43;;;;;;;3.05;0.70;;;22.50;66.50;;;;;;5046305;28;20249;-69
2022/05/24 09:24:24;;;;;;;0.68;0.60;;;22.50;66.60;;;;;;5091645;28;20204;-70
2022/05/24 09:27:12;;;;;;;2.50;0.80;;;22.50;66.30;;;;;;5089512;28;20219;-70
2022/05/24 09:30:02;;;;;;;1.30;0.80;;;22.50;66.40;;;;;;5095164;28;20173;-69
2022/05/24 09:32:46;;;;;;;0.93;0.70;;;22.50;66.50;;;;;;5093545;28;20255;-70
2022/05/24 09:35:26;;;;;;;0.70;0.70;;;22.50;66.80;;;;;;5080424;28;20213;-70
2022/05/24 09:38:03;;;;;;;0.70;0.70;;;22.50;67.10;;;;;;5073849;28;20271;-70
2022/05/24 09:40:43;;;;;;;0.65;0.65;;;22.50;68.00;;;;;;5080013;28;20243;-70
2022/05/24 09:43:39;;;;;;;1.42;0.60;;;22.40;68.00;;;;;;5095327;28;20234;-70
2022/05/24 09:46:22;;;;;;;1.80;0.80;;;22.40;66.90;;;;;;5084316;28;20201;-70
2022/05/24 09:49:02;;;;;;;0.85;0.85;;;22.50;67.10;;;;;;5077338;28;20230;-70
2022/05/24 09:51:41;;;;;;;0.90;0.70;;;22.40;67.20;;;;;;5093980;28;20180;-70
2022/05/24 09:54:25;;;;;;;0.60;0.60;;;22.50;66.70;;;;;;5093922;28;20184;-70
2022/05/24 09:57:08;;;;;;;1.35;0.90;;;22.50;67.30;;;;;;5095209;28;20192;-70
2022/05/24 09:59:39;;;;;;;1.08;0.70;;;22.50;67.50;;;;;;5075397;28;20291;-70
2022/05/24 10:02:27;;;;;;;0.68;0.60;;;22.50;67.00;;;;;;5075892;28;20310;-70
2022/05/24 10:04:52;;;;;;;1.30;0.68;;;22.60;67.00;;;;;;5075890;28;20200;-71
2022/05/24 10:07:30;;;;;;;1.20;0.73;;;22.50;66.60;;;;;;5071955;28;20178;-70
2022/05/24 10:10:18;;;;;;;1.20;0.80;;;22.50;66.60;;;;;;5074365;28;20268;-70
2022/05/24 10:12:59;;;;;;;0.50;0.50;;;22.50;66.30;;;;;;5076475;28;20609;-71
2022/05/24 10:15:49;;;;;;;0.70;0.70;;;22.50;66.20;;;;;;5093486;28;20213;-70
2022/05/24 10:18:54;;;;;;;0.60;0.60;;;22.50;66.50;;;;;;5093851;28;20189;-70
2022/05/24 10:21:39;;;;;;;1.00;0.70;;;22.60;66.60;;;;;;5070689;28;20196;-70
2022/05/24 10:24:31;;;;;;;0.75;0.73;;;22.50;66.70;;;;;;5076842;28;20177;-71
2022/05/24 10:27:01;;;;;;;1.23;0.60;;;22.50;66.10;;;;;;5094412;28;20214;-70
2022/05/24 10:30:03;;;;;;;0.88;0.70;;;22.60;66.70;;;;;;5094083;28;20189;-70
2022/05/24 10:38:54;;;;;;;0.60;0.60;;;22.50;66.20;;;;;;5092870;28;20195;-71
2022/05/24 10:41:45;;;;;;;2.58;0.80;;;22.50;66.30;;;;;;5092426;28;20628;-70
2022/05/24 10:44:39;;;;;;;1.30;0.70;;;22.60;66.40;;;;;;5070924;28;20255;-70
2022/05/24 10:47:24;;;;;;;1.23;0.90;;;22.60;66.20;;;;;;5092243;28;20197;-71
2022/05/24 10:49:56;;;;;;;0.93;0.80;;;22.60;66.10;;;;;;5075566;28;20297;-70
2022/05/24 10:52:49;;;;;;;0.65;0.40;;;22.60;65.90;;;;;;5075381;28;20173;-70
2022/05/24 10:55:22;;;;;;;1.33;0.90;;;22.60;65.60;;;;;;5075714;28;20570;-70
2022/05/24 10:58:09;;;;;;;0.82;0.73;;;22.60;65.80;;;;;;5092663;28;20169;-70
2022/05/24 11:00:45;;;;;;;0.52;0.50;;;22.60;66.40;;;;;;5087983;28;20215;-70
2022/05/24 11:03:17;;;;;;;0.63;0.63;;;22.60;65.70;;;;;;5092501;28;20261;-70
2022/05/24 11:05:59;;;;;;;0.80;0.70;;;22.60;65.60;;;;;;5092548;28;20223;-71
2022/05/24 11:08:52;;;;;;;0.73;0.50;;;22.60;65.60;;;;;;5090724;28;20181;-70
2022/05/24 11:11:40;;;;;;;1.35;0.70;;;22.60;65.60;;;;;;5092009;28;20177;-70
2022/05/24 11:14:30;;;;;;;2.17;0.70;;;22.60;65.40;;;;;;5092498;28;20218;-70
2022/05/24 11:16:56;;;;;;;1.23;0.60;;;22.60;65.20;;;;;;5089648;28;20260;-70
2022/05/24 11:19:35;;;;;;;2.20;0.77;;;22.60;65.20;;;;;;5085596;28;20212;-72
2022/05/24 11:22:35;;;;;;;6.68;1.17;;;22.60;64.90;;;;;;5091597;28;20183;-70
2022/05/24 11:25:42;;;;;;;1.58;0.60;;;22.80;65.60;;;;;;5092951;28;20157;-71
2022/05/24 11:28:14;;;;;;;4.97;0.80;;;22.80;65.60;;;;;;5030579;28;20190;-71
2022/05/24 11:30:41;;;;;;;5.28;0.95;;;22.80;65.70;;;;;;5020498;28;20197;-71
2022/05/24 11:33:17;;;;;;;7.10;1.10;;;22.80;65.80;;;;;;5069084;28;20193;-70
2022/05/24 11:35:50;;;;;;;3.90;0.70;;;22.80;65.50;;;;;;5083265;28;20210;-71
2022/05/24 11:38:23;;;;;;;1.67;0.70;;;22.80;65.60;;;;;;5110328;28;20180;-70
2022/05/24 11:41:05;;;;;;;1.40;0.70;;;22.80;65.80;;;;;;5102801;28;20217;-71
2022/05/24 11:43:38;;;;;;;0.93;0.75;;;22.70;65.80;;;;;;5068416;28;20169;-70
2022/05/24 11:46:29;;;;;;;1.40;0.73;;;22.70;65.10;;;;;;5081351;28;20250;-70
2022/05/24 11:48:59;;;;;;;2.05;0.73;;;22.70;65.00;;;;;;5086882;28;20191;-72
2022/05/24 11:51:54;;;;;;;1.70;0.80;;;22.70;65.00;;;;;;5091637;28;20179;-71
2022/05/24 11:54:23;;;;;;;1.95;0.70;;;22.60;64.30;;;;;;5090876;28;20181;-71
2022/05/24 11:57:15;;;;;;;0.95;0.60;;;22.60;61.90;;;;;;5073102;28;20208;-71
2022/05/24 11:59:40;;;;;;;0.88;0.60;;;22.60;64.40;;;;;;5032473;28;20221;-70
2022/05/24 12:02:32;;;;;;;2.03;0.90;;;22.60;63.70;;;;;;5073607;28;20268;-70
2022/05/24 12:08:01;;;;;;;0.60;0.47;;;22.50;58.60;;;;;;5088189;28;20189;-70
2022/05/24 12:10:48;;;;;;;1.00;0.60;;;22.40;57.40;;;;;;5089406;28;20180;-70
2022/05/24 12:13:31;;;;;;;0.60;0.45;;;22.30;56.30;;;;;;5059565;28;20185;-70
2022/05/24 12:16:27;;;;;;;0.68;0.52;;;22.40;56.00;;;;;;5070786;28;20219;-71
2022/05/24 12:18:59;;;;;;;1.58;0.50;;;22.40;55.70;;;;;;5070924;28;20189;-71
2022/05/24 12:21:55;;;;;;;0.60;0.60;;;22.40;55.20;;;;;;5065898;28;20184;-71
2022/05/24 12:24:51;;;;;;;0.85;0.68;;;22.40;55.50;;;;;;5084868;28;20220;-71
2022/05/24 12:27:43;;;;;;;1.27;0.50;;;22.40;55.80;;;;;;5058395;28;20188;-70
2022/05/24 12:30:39;;;;;;;0.70;0.52;;;22.40;55.90;;;;;;5077701;28;20208;-70
2022/05/24 12:33:18;;;;;;;1.40;0.60;;;22.40;54.90;;;;;;5095113;28;20185;-70
2022/05/24 12:35:56;;;;;;;0.60;0.60;;;22.40;54.50;;;;;;5095125;28;20205;-70
2022/05/24 12:38:27;;;;;;;1.55;0.60;;;22.40;54.60;;;;;;5087692;28;20173;-71
2022/05/24 12:41:21;;;;;;;1.75;0.60;;;22.30;54.80;;;;;;5094950;28;20212;-71
2022/05/24 12:44:12;;;;;;;0.82;0.60;;;22.40;55.20;;;;;;5095421;28;20586;-71
2022/05/24 12:46:39;;;;;;;0.95;0.60;;;22.40;54.80;;;;;;5085805;28;20205;-71
2022/05/24 12:49:15;;;;;;;1.45;0.60;;;22.40;56.40;;;;;;5075872;28;20210;-70
2022/05/24 12:51:41;;;;;;;0.90;0.52;;;22.40;55.00;;;;;;5072703;28;20181;-69
2022/05/24 12:54:35;;;;;;;1.70;0.60;;;22.40;54.60;;;;;;5095632;28;20181;-71
2022/05/24 12:57:16;;;;;;;1.23;0.50;;;22.40;56.00;;;;;;5095524;28;20196;-71
2022/05/24 12:59:52;;;;;;;2.17;0.70;;;22.40;56.20;;;;;;5096680;28;20216;-71
2022/05/24 13:02:35;;;;;;;0.70;0.70;;;22.40;55.80;;;;;;5084903;28;20210;-71
2022/05/24 13:05:07;;;;;;;0.50;0.50;;;22.40;55.00;;;;;;5077365;28;20238;-71
2022/05/24 13:07:51;;;;;;;2.33;0.60;;;22.40;56.80;;;;;;5077521;28;20185;-71
2022/05/24 13:10:28;;;;;;;1.35;0.68;;;22.50;56.50;;;;;;5073697;28;20499;-70
2022/05/24 13:13:09;;;;;;;1.85;0.65;;;22.50;55.80;;;;;;5074086;28;20323;-71
2022/05/24 13:15:38;;;;;;;0.60;0.60;;;22.40;55.30;;;;;;5074935;28;20281;-71
2022/05/24 13:18:15;;;;;;;1.13;0.70;;;22.50;56.50;;;;;;5090620;28;20189;-71
2022/05/24 13:20:49;;;;;;;0.98;0.68;;;22.40;56.80;;;;;;5081069;28;20628;-71
2022/05/24 13:23:14;;;;;;;1.23;0.70;;;22.50;57.90;;;;;;5090230;28;20186;-71
2022/05/24 13:25:52;;;;;;;2.08;0.70;;;22.50;57.80;;;;;;5078794;28;20279;-71
2022/05/24 13:28:46;;;;;;;1.02;0.40;;;22.50;56.50;;;;;;5068369;28;20192;-70
2022/05/24 13:34:12;;;;;;;0.60;0.60;;;22.40;54.40;;;;;;5087594;28;20177;-71
2022/05/24 13:36:53;;;;;;;0.88;0.60;;;22.40;56.30;;;;;;5073284;28;20212;-71
2022/05/24 13:39:30;;;;;;;1.20;0.70;;;22.50;57.30;;;;;;5073196;28;20221;-70
2022/05/24 13:42:05;;;;;;;1.25;0.60;;;22.50;55.40;;;;;;5090912;28;20189;-70
2022/05/24 13:44:42;;;;;;;0.95;0.50;;;22.40;55.80;;;;;;5076699;28;20185;-72
2022/05/24 13:47:24;;;;;;;0.98;0.70;;;22.50;56.10;;;;;;5073197;28;20204;-71
2022/05/24 13:49:50;;;;;;;1.17;0.60;;;22.40;56.10;;;;;;5073462;28;20197;-71
2022/05/24 13:52:29;;;;;;;0.68;0.65;;;22.40;55.90;;;;;;5093336;28;20189;-70
2022/05/24 13:55:21;;;;;;;1.60;0.63;;;22.40;55.40;;;;;;5056325;28;20174;-70
2022/05/24 13:58:05;;;;;;;2.65;0.50;;;22.40;55.10;;;;;;5073396;28;20174;-70
2022/05/24 14:00:44;;;;;;;1.85;0.60;;;22.40;55.10;;;;;;5079125;28;20378;-70
2022/05/24 14:03:19;;;;;;;2.35;0.50;;;22.40;54.80;;;;;;5092025;28;20188;-70